createdAt,value
2018-03-30T00:04:39.689Z,80.90
2018-03-30T00:07:07.238Z,80.80
2018-03-30T00:09:47.338Z,81.30
2018-03-30T00:12:14.889Z,81.30
2018-03-30T00:14:42.411Z,81.20
2018-03-30T00:17:10.765Z,80.80
2018-03-30T00:19:38.288Z,80.80
2018-03-30T00:22:05.845Z,80.70
2018-03-30T00:24:33.368Z,80.60
2018-03-30T00:27:01.658Z,81.70
2018-03-30T00:29:29.202Z,81.60
2018-03-30T00:31:57.481Z,82.30
2018-03-30T00:34:25.800Z,82.40
2018-03-30T00:36:53.325Z,82.30
2018-03-30T00:39:21.635Z,83.50
2018-03-30T00:41:49.163Z,83.40
2018-03-30T00:44:17.477Z,83.70
2018-03-30T00:46:45.004Z,83.60
2018-03-30T00:49:13.314Z,84.30
2018-03-30T00:51:40.841Z,84.30
2018-03-30T00:54:09.153Z,84.60
2018-03-30T00:56:36.677Z,84.50
2018-03-30T00:59:04.989Z,83.70
2018-03-30T01:01:32.515Z,83.60
2018-03-30T01:04:00.825Z,83.60
2018-03-30T01:06:28.342Z,83.60
2018-03-30T01:08:56.658Z,83.40
2018-03-30T01:11:24.182Z,83.30
2018-03-30T01:13:52.506Z,82.80
2018-03-30T01:16:20.026Z,82.70
2018-03-30T01:18:48.337Z,83.00
2018-03-30T01:21:15.862Z,83.00
2018-03-30T01:23:44.177Z,83.00
2018-03-30T01:26:11.702Z,83.00
2018-03-30T01:28:39.986Z,82.90
2018-03-30T01:31:08.310Z,82.80
2018-03-30T01:33:35.834Z,82.80
2018-03-30T01:36:03.390Z,83.10
2018-03-30T01:38:30.909Z,82.70
2018-03-30T01:40:58.473Z,82.40
2018-03-30T01:43:25.998Z,82.30
2018-03-30T01:45:53.545Z,82.30
2018-03-30T01:48:21.076Z,82.50
2018-03-30T01:50:49.386Z,82.30
2018-03-30T01:53:16.914Z,82.30
2018-03-30T01:55:45.236Z,82.40
2018-03-30T01:58:12.786Z,82.30
2018-03-30T02:00:40.337Z,82.40
2018-03-30T02:03:07.857Z,82.80
2018-03-30T02:05:35.406Z,82.80
2018-03-30T02:08:02.934Z,82.90
2018-03-30T02:10:30.483Z,83.00
2018-03-30T02:12:58.006Z,82.90
2018-03-30T02:15:26.328Z,83.20
2018-03-30T02:17:53.847Z,83.90
2018-03-30T02:20:22.161Z,82.90
2018-03-30T02:22:49.694Z,82.90
2018-03-30T02:25:18.013Z,82.40
2018-03-30T02:27:45.537Z,82.30
2018-03-30T02:30:13.094Z,82.40
2018-03-30T02:32:40.624Z,82.70
2018-03-30T02:35:08.154Z,82.20
2018-03-30T02:37:35.710Z,82.20
2018-03-30T02:40:03.241Z,82.60
2018-03-30T02:42:30.790Z,82.20
2018-03-30T02:44:59.087Z,81.90
2018-03-30T02:47:26.647Z,81.90
2018-03-30T02:49:54.175Z,81.80
2018-03-30T02:52:22.490Z,81.90
2018-03-30T02:54:50.020Z,81.90
2018-03-30T02:57:18.338Z,81.90
2018-03-30T02:59:45.867Z,81.90
2018-03-30T03:02:13.418Z,81.70
2018-03-30T03:04:41.707Z,82.60
2018-03-30T03:07:09.266Z,82.60
2018-03-30T03:09:36.794Z,82.50
2018-03-30T03:12:04.341Z,82.70
2018-03-30T03:14:31.856Z,82.40
2018-03-30T03:16:59.426Z,81.80
2018-03-30T03:19:26.952Z,81.90
2018-03-30T03:21:55.281Z,82.30
2018-03-30T03:24:23.564Z,82.60
2018-03-30T03:26:51.110Z,82.40
2018-03-30T03:29:18.629Z,82.70
2018-03-30T03:31:46.950Z,83.00
2018-03-30T03:34:14.479Z,82.90
2018-03-30T03:36:42.774Z,83.10
2018-03-30T03:39:10.336Z,83.10
2018-03-30T03:41:37.861Z,83.20
2018-03-30T03:44:06.179Z,83.40
2018-03-30T03:46:33.705Z,83.40
2018-03-30T03:49:02.030Z,83.00
2018-03-30T03:51:30.329Z,83.40
2018-03-30T03:53:57.886Z,83.40
2018-03-30T03:56:25.416Z,83.10
2018-03-30T03:58:53.065Z,82.90
2018-03-30T04:01:20.596Z,82.70
2018-03-30T04:03:48.922Z,82.40
2018-03-30T04:06:16.451Z,82.40
2018-03-30T04:08:44.006Z,82.20
2018-03-30T04:11:11.547Z,82.40
2018-03-30T04:13:39.098Z,82.90
2018-03-30T04:16:06.613Z,83.10
2018-03-30T04:18:34.176Z,83.20
2018-03-30T04:21:01.696Z,83.30
2018-03-30T04:23:30.016Z,83.20
2018-03-30T04:25:57.553Z,83.20
2018-03-30T04:28:25.106Z,83.40
2018-03-30T04:30:53.392Z,83.10
2018-03-30T04:33:20.938Z,83.00
2018-03-30T04:35:49.236Z,82.70
2018-03-30T04:38:16.790Z,82.60
2018-03-30T04:40:44.322Z,82.90
2018-03-30T04:43:11.845Z,83.40
2018-03-30T04:45:39.398Z,83.40
2018-03-30T04:48:06.926Z,83.70
2018-03-30T04:50:34.510Z,83.30
2018-03-30T04:53:02.034Z,83.40
2018-03-30T04:55:30.357Z,83.40
2018-03-30T04:57:57.885Z,83.40
2018-03-30T05:00:25.442Z,83.40
2018-03-30T05:02:52.974Z,83.50
2018-03-30T05:05:20.521Z,83.50
2018-03-30T05:07:48.051Z,83.40
2018-03-30T05:10:15.619Z,83.10
2018-03-30T05:12:43.145Z,83.30
2018-03-30T05:15:10.695Z,83.30
2018-03-30T05:17:38.976Z,83.50
2018-03-30T05:20:06.538Z,83.50
2018-03-30T05:22:34.063Z,83.60
2018-03-30T05:25:01.622Z,83.60
2018-03-30T05:27:29.145Z,83.60
2018-03-30T05:29:56.706Z,83.60
2018-03-30T05:32:24.232Z,83.80
2018-03-30T05:34:52.553Z,83.80
2018-03-30T05:37:20.081Z,83.70
2018-03-30T05:39:47.672Z,83.80
2018-03-30T05:42:15.201Z,84.40
2018-03-30T05:44:42.729Z,83.70
2018-03-30T05:47:10.286Z,83.60
2018-03-30T05:49:37.809Z,83.70
2018-03-30T05:52:05.358Z,83.80
2018-03-30T05:54:32.873Z,83.70
2018-03-30T05:57:00.431Z,83.60
2018-03-30T05:59:28.731Z,83.70
2018-03-30T06:01:57.045Z,83.70
2018-03-30T06:04:24.567Z,83.60
2018-03-30T06:06:52.878Z,83.70
2018-03-30T06:09:20.398Z,83.60
2018-03-30T06:11:48.724Z,83.70
2018-03-30T06:14:16.250Z,83.60
2018-03-30T06:16:44.570Z,83.50
2018-03-30T06:19:12.095Z,83.40
2018-03-30T06:21:39.667Z,83.50
2018-03-30T06:24:07.186Z,83.50
2018-03-30T06:26:34.742Z,83.40
2018-03-30T06:29:02.265Z,81.70
2018-03-30T06:31:29.819Z,83.20
2018-03-30T06:33:57.346Z,83.40
2018-03-30T06:36:25.664Z,83.20
2018-03-30T06:38:53.202Z,83.20
2018-03-30T06:41:20.762Z,83.20
2018-03-30T06:43:48.318Z,83.20
2018-03-30T06:46:15.882Z,83.10
2018-03-30T06:48:43.410Z,83.00
2018-03-30T06:51:10.929Z,83.00
2018-03-30T06:53:38.481Z,82.90
2018-03-30T06:56:06.041Z,82.80
2018-03-30T06:58:33.633Z,82.80
2018-03-30T07:01:01.125Z,82.90
2018-03-30T07:03:29.444Z,82.80
2018-03-30T07:05:56.969Z,82.80
2018-03-30T07:08:25.286Z,82.60
2018-03-30T07:10:52.806Z,82.60
2018-03-30T07:13:20.414Z,82.50
2018-03-30T07:15:47.934Z,82.60
2018-03-30T07:18:15.480Z,82.50
2018-03-30T07:20:43.770Z,82.30
2018-03-30T07:23:12.089Z,82.60
2018-03-30T07:25:39.609Z,82.50
2018-03-30T07:28:07.930Z,82.30
2018-03-30T07:30:35.451Z,82.30
2018-03-30T07:33:03.001Z,82.30
2018-03-30T07:35:31.293Z,82.20
2018-03-30T07:37:58.849Z,82.10
2018-03-30T07:40:27.142Z,81.90
2018-03-30T07:42:54.666Z,81.90
2018-03-30T07:45:22.221Z,81.90
2018-03-30T07:47:49.748Z,81.80
2018-03-30T07:50:17.297Z,81.80
2018-03-30T07:52:44.819Z,81.90
2018-03-30T07:55:13.146Z,81.80
2018-03-30T07:57:40.702Z,81.70
2018-03-30T08:00:08.259Z,81.70
2018-03-30T08:02:35.826Z,81.60
2018-03-30T08:05:03.378Z,81.70
2018-03-30T08:07:30.909Z,81.40
2018-03-30T08:09:58.459Z,81.30
2018-03-30T08:12:26.741Z,81.40
2018-03-30T08:14:55.058Z,81.40
2018-03-30T08:17:22.582Z,81.40
2018-03-30T08:19:50.141Z,81.30
2018-03-30T08:22:18.431Z,81.00
2018-03-30T08:24:45.982Z,81.00
2018-03-30T08:27:14.279Z,80.70
2018-03-30T08:29:41.843Z,80.60
2018-03-30T08:32:09.366Z,81.00
2018-03-30T08:34:37.678Z,80.40
2018-03-30T08:37:05.193Z,80.30
2018-03-30T08:39:32.747Z,80.40
2018-03-30T08:42:00.278Z,80.40
2018-03-30T08:44:27.841Z,79.80
2018-03-30T08:46:55.397Z,79.30
2018-03-30T08:49:22.927Z,78.90
2018-03-30T08:51:50.510Z,79.50
2018-03-30T08:54:18.038Z,79.40
2018-03-30T08:56:46.357Z,79.70
2018-03-30T08:59:13.885Z,79.60
2018-03-30T09:01:41.433Z,79.10
2018-03-30T09:04:09.725Z,78.90
2018-03-30T09:06:37.274Z,78.90
2018-03-30T09:09:05.637Z,78.80
2018-03-30T09:11:33.962Z,79.30
2018-03-30T09:14:01.512Z,78.60
2018-03-30T09:16:29.064Z,78.70
2018-03-30T09:18:56.590Z,78.10
2018-03-30T09:21:24.138Z,76.50
2018-03-30T09:23:51.665Z,76.60
2018-03-30T09:26:19.214Z,77.20
2018-03-30T09:28:46.741Z,77.10
2018-03-30T09:31:15.055Z,76.00
2018-03-30T09:33:42.586Z,75.90
2018-03-30T09:36:10.897Z,75.40
2018-03-30T09:38:38.418Z,75.30
2018-03-30T09:41:06.738Z,72.80
2018-03-30T09:43:34.266Z,72.70
2018-03-30T09:46:01.825Z,71.40
2018-03-30T09:48:29.340Z,69.40
2018-03-30T09:50:56.853Z,69.20
2018-03-30T09:53:24.407Z,68.80
2018-03-30T09:55:51.933Z,68.10
2018-03-30T09:58:19.489Z,68.20
2018-03-30T10:00:47.012Z,67.20
2018-03-30T10:03:14.565Z,67.20
2018-03-30T10:05:42.091Z,68.20
2018-03-30T10:08:10.415Z,69.30
2018-03-30T10:10:38.706Z,69.10
2018-03-30T10:13:06.278Z,69.00
2018-03-30T10:15:33.811Z,69.50
2018-03-30T10:18:01.367Z,69.00
2018-03-30T10:20:28.889Z,69.30
2018-03-30T10:22:57.210Z,69.10
2018-03-30T10:25:24.744Z,69.10
2018-03-30T10:27:52.311Z,68.00
2018-03-30T10:30:19.840Z,68.40
2018-03-30T10:32:48.165Z,67.70
2018-03-30T10:35:15.700Z,67.30
2018-03-30T10:37:44.023Z,66.90
2018-03-30T10:40:11.555Z,66.90
2018-03-30T10:42:39.113Z,66.80
2018-03-30T10:45:06.645Z,66.40
2018-03-30T10:47:34.982Z,65.10
2018-03-30T10:50:02.513Z,65.10
2018-03-30T10:52:30.087Z,65.20
2018-03-30T10:54:57.662Z,65.60
2018-03-30T10:57:25.195Z,65.00
2018-03-30T10:59:52.760Z,64.20
2018-03-30T11:02:20.287Z,63.90
2018-03-30T11:04:48.617Z,64.60
2018-03-30T11:07:16.152Z,64.50
2018-03-30T11:09:43.739Z,64.00
2018-03-30T11:12:11.267Z,63.30
2018-03-30T11:14:38.819Z,62.90
2018-03-30T11:17:06.358Z,62.80
2018-03-30T11:19:34.689Z,61.30
2018-03-30T11:22:02.221Z,61.20
2018-03-30T11:24:29.783Z,61.40
2018-03-30T11:26:57.318Z,61.30
2018-03-30T11:29:24.881Z,61.50
2018-03-30T11:31:53.165Z,61.10
2018-03-30T11:34:21.494Z,60.60
2018-03-30T11:36:49.025Z,60.60
2018-03-30T11:39:16.573Z,61.10
2018-03-30T11:41:44.861Z,62.40
2018-03-30T11:44:12.423Z,62.40
2018-03-30T11:46:39.959Z,60.20
2018-03-30T11:49:07.538Z,60.70
2018-03-30T11:51:35.070Z,61.00
2018-03-30T11:54:03.406Z,62.40
2018-03-30T11:56:30.946Z,62.30
2018-03-30T11:58:58.473Z,62.20
2018-03-30T12:01:26.803Z,58.90
2018-03-30T12:03:54.330Z,58.80
2018-03-30T12:06:21.885Z,57.00
2018-03-30T12:08:49.414Z,58.80
2018-03-30T12:11:16.973Z,59.30
2018-03-30T12:13:44.497Z,58.50
2018-03-30T12:16:12.063Z,58.10
2018-03-30T12:18:39.598Z,57.50
2018-03-30T12:21:07.157Z,56.90
2018-03-30T12:23:34.694Z,57.00
2018-03-30T12:26:03.024Z,55.70
2018-03-30T12:28:30.545Z,55.70
2018-03-30T12:30:58.096Z,55.90
2018-03-30T12:33:26.397Z,55.60
2018-03-30T12:35:53.949Z,55.60
2018-03-30T12:38:21.483Z,55.70
2018-03-30T12:40:49.815Z,54.80
2018-03-30T12:43:17.359Z,54.80
2018-03-30T12:45:44.916Z,54.70
2018-03-30T12:48:12.442Z,54.50
2018-03-30T12:50:40.015Z,54.60
2018-03-30T12:53:08.312Z,54.70
2018-03-30T12:55:35.869Z,54.70
2018-03-30T12:58:03.395Z,54.00
2018-03-30T13:00:30.923Z,53.80
2018-03-30T13:02:58.482Z,53.10
2018-03-30T13:05:26.013Z,51.40
2018-03-30T13:07:53.575Z,51.70
2018-03-30T13:10:21.089Z,52.80
2018-03-30T13:12:48.638Z,52.30
2018-03-30T13:15:16.153Z,52.10
2018-03-30T13:17:43.697Z,49.60
2018-03-30T13:20:11.981Z,50.30
2018-03-30T13:22:39.530Z,50.20
2018-03-30T13:25:07.822Z,51.00
2018-03-30T13:27:35.371Z,51.00
2018-03-30T13:30:03.657Z,50.60
2018-03-30T13:32:31.218Z,50.50
2018-03-30T13:34:59.509Z,47.10
2018-03-30T13:37:27.062Z,47.10
2018-03-30T13:39:55.363Z,49.80
2018-03-30T13:42:22.918Z,49.90
2018-03-30T13:44:50.465Z,49.90
2018-03-30T13:47:18.017Z,49.80
2018-03-30T13:49:46.309Z,49.30
2018-03-30T13:52:18.169Z,49.30
2018-03-30T13:54:46.414Z,48.40
2018-03-30T13:57:18.154Z,48.70
2018-03-30T13:59:53.361Z,48.70
2018-03-30T14:05:32.154Z,48.30
2018-03-30T14:08:11.310Z,48.40
2018-03-30T14:13:44.966Z,48.40
2018-03-30T14:16:14.930Z,48.30
2018-03-30T14:18:49.737Z,48.60
2018-03-30T14:21:22.121Z,48.60
2018-03-30T14:23:52.964Z,48.70
2018-03-30T14:26:32.205Z,48.60
2018-03-30T14:29:02.191Z,49.00
2018-03-30T14:31:31.209Z,48.90
2018-03-30T14:34:02.230Z,49.20
2018-03-30T14:36:32.619Z,47.40
2018-03-30T14:39:01.103Z,45.60
2018-03-30T14:41:28.625Z,47.20
2018-03-30T14:43:56.957Z,47.40
2018-03-30T14:46:27.767Z,49.20
2018-03-30T14:48:59.548Z,51.00
2018-03-30T14:51:34.706Z,51.00
2018-03-30T14:54:09.693Z,51.40
2018-03-30T14:56:48.819Z,52.10
2018-03-30T14:59:28.765Z,52.10
2018-03-30T15:01:58.080Z,52.40
2018-03-30T15:04:40.238Z,52.20
2018-03-30T15:10:22.097Z,50.30
2018-03-30T15:12:56.792Z,53.10
2018-03-30T15:15:24.346Z,52.50
2018-03-30T15:17:54.689Z,52.70
2018-03-30T15:20:24.703Z,52.80
2018-03-30T15:23:07.811Z,52.90
2018-03-30T15:25:47.931Z,53.00
2018-03-30T15:28:15.469Z,53.30
2018-03-30T15:31:00.635Z,53.80
2018-03-30T15:36:54.921Z,54.00
2018-03-30T15:39:22.449Z,54.00
2018-03-30T15:41:53.425Z,54.00
2018-03-30T15:44:20.958Z,54.10
2018-03-30T15:46:49.986Z,54.40
2018-03-30T15:49:17.517Z,54.60
2018-03-30T15:51:49.573Z,54.30
2018-03-30T15:54:16.611Z,54.30
2018-03-30T15:56:45.082Z,54.20
2018-03-30T15:59:12.611Z,54.60
2018-03-30T16:01:40.168Z,54.60
2018-03-30T16:04:07.712Z,54.70
2018-03-30T16:06:35.244Z,54.50
2018-03-30T16:09:02.810Z,54.60
2018-03-30T16:11:32.026Z,54.60
2018-03-30T16:13:59.581Z,54.80
2018-03-30T16:16:27.101Z,55.00
2018-03-30T16:18:55.958Z,55.00
2018-03-30T16:21:23.008Z,55.00
2018-03-30T16:23:50.104Z,55.30
2018-03-30T16:26:17.152Z,55.40
2018-03-30T16:28:44.186Z,55.40
2018-03-30T16:31:11.245Z,55.30
2018-03-30T16:33:38.278Z,55.60
2018-03-30T16:36:05.341Z,55.80
2018-03-30T16:38:32.406Z,55.40
2018-03-30T16:40:59.474Z,55.90
2018-03-30T16:43:26.507Z,55.90
2018-03-30T16:45:53.573Z,56.00
2018-03-30T16:48:20.620Z,56.20
2018-03-30T16:50:47.711Z,56.40
2018-03-30T16:53:15.513Z,56.60
2018-03-30T16:55:42.585Z,56.60
2018-03-30T16:58:09.627Z,56.80
2018-03-30T17:00:36.696Z,57.00
2018-03-30T17:03:03.725Z,57.00
2018-03-30T17:05:30.787Z,57.20
2018-03-30T17:07:57.821Z,57.40
2018-03-30T17:10:24.882Z,57.50
2018-03-30T17:12:51.914Z,57.50
2018-03-30T17:15:18.970Z,57.70
2018-03-30T17:17:46.009Z,57.70
2018-03-30T17:20:13.066Z,57.90
2018-03-30T17:22:40.097Z,57.90
2018-03-30T17:25:07.150Z,58.00
2018-03-30T17:27:34.196Z,58.10
2018-03-30T17:30:01.242Z,58.20
2018-03-30T17:32:28.305Z,58.30
2018-03-30T17:34:55.337Z,58.50
2018-03-30T17:37:22.393Z,58.70
2018-03-30T17:39:49.425Z,58.80
2018-03-30T17:42:16.486Z,58.90
2018-03-30T17:44:43.518Z,58.90
2018-03-30T17:47:10.582Z,59.10
2018-03-30T17:49:37.613Z,59.30
2018-03-30T17:52:04.676Z,59.30
2018-03-30T17:54:31.712Z,59.40
2018-03-30T17:56:58.779Z,59.60
2018-03-30T17:59:25.809Z,59.80
2018-03-30T18:01:52.878Z,59.70
2018-03-30T18:04:19.924Z,59.80
2018-03-30T18:06:46.982Z,59.90
2018-03-30T18:09:14.020Z,59.90
2018-03-30T18:11:41.085Z,60.00
2018-03-30T18:14:08.119Z,60.10
2018-03-30T18:16:35.958Z,60.40
2018-03-30T18:19:03.771Z,60.50
2018-03-30T18:21:30.839Z,60.30
2018-03-30T18:23:57.884Z,60.40
2018-03-30T18:26:24.966Z,60.60
2018-03-30T18:28:52.773Z,60.70
2018-03-30T18:31:19.814Z,60.70
2018-03-30T18:33:46.886Z,60.80
2018-03-30T18:36:13.922Z,60.90
2018-03-30T18:38:40.990Z,60.90
2018-03-30T18:41:08.040Z,61.00
2018-03-30T18:43:35.114Z,61.10
2018-03-30T18:46:02.918Z,61.20
2018-03-30T18:48:29.981Z,61.10
2018-03-30T18:50:57.026Z,61.40
2018-03-30T18:53:24.094Z,61.20
2018-03-30T18:55:51.133Z,61.40
2018-03-30T18:58:18.204Z,61.50
2018-03-30T19:00:45.237Z,61.40
2018-03-30T19:03:12.318Z,61.70
2018-03-30T19:05:40.124Z,61.80
2018-03-30T19:08:07.203Z,61.70
2018-03-30T19:10:34.260Z,61.80
2018-03-30T19:13:01.330Z,61.80
2018-03-30T19:15:28.367Z,61.80
2018-03-30T19:17:55.434Z,62.00
2018-03-30T19:20:23.238Z,62.20
2018-03-30T19:22:50.312Z,62.10
2018-03-30T19:25:17.350Z,62.30
2018-03-30T19:27:44.416Z,62.40
2018-03-30T19:30:11.459Z,62.60
2018-03-30T19:32:38.490Z,62.40
2018-03-30T19:35:05.549Z,62.50
2018-03-30T19:37:32.574Z,62.40
2018-03-30T19:39:59.632Z,62.80
2018-03-30T19:42:26.661Z,62.70
2018-03-30T19:44:53.722Z,62.80
2018-03-30T19:47:20.758Z,63.00
2018-03-30T19:49:47.823Z,63.00
2018-03-30T19:52:14.854Z,63.10
2018-03-30T19:54:41.922Z,63.30
2018-03-30T19:57:09.713Z,63.50
2018-03-30T19:59:36.785Z,63.60
2018-03-30T20:02:03.819Z,63.80
2018-03-30T20:04:30.882Z,64.00
2018-03-30T20:06:57.915Z,64.10
2018-03-30T20:09:24.969Z,64.20
2018-03-30T20:11:52.008Z,64.40
2018-03-30T20:14:19.077Z,64.50
2018-03-30T20:16:46.114Z,64.70
2018-03-30T20:19:13.178Z,64.80
2018-03-30T20:21:40.989Z,65.00
2018-03-30T20:24:08.044Z,65.00
2018-03-30T20:26:35.075Z,65.20
2018-03-30T20:29:02.134Z,65.30
2018-03-30T20:31:29.153Z,65.40
2018-03-30T20:33:56.982Z,66.20
2018-03-30T20:36:24.018Z,65.40
2018-03-30T20:38:51.041Z,65.80
2018-03-30T20:41:18.171Z,65.70
2018-03-30T20:43:45.204Z,65.80
2018-03-30T20:46:13.030Z,65.90
2018-03-30T20:48:40.066Z,65.80
2018-03-30T20:51:07.126Z,65.90
2018-03-30T20:53:34.154Z,66.10
2018-03-30T20:56:01.205Z,66.10
2018-03-30T20:58:28.243Z,66.10
2018-03-30T21:00:55.317Z,66.10
2018-03-30T21:03:22.354Z,66.30
2018-03-30T21:05:49.418Z,66.40
2018-03-30T21:08:17.247Z,66.40
2018-03-30T21:10:44.311Z,66.40
2018-03-30T21:13:11.339Z,66.40
2018-03-30T21:15:39.160Z,66.50
2018-03-30T21:18:06.195Z,66.40
2018-03-30T21:20:34.023Z,66.80
2018-03-30T21:23:01.070Z,66.70
2018-03-30T21:25:28.138Z,66.90
2018-03-30T21:27:55.173Z,66.80
2018-03-30T21:30:22.234Z,66.80
2018-03-30T21:32:49.271Z,67.00
2018-03-30T21:35:16.337Z,66.80
2018-03-30T21:37:43.368Z,66.80
2018-03-30T21:40:10.443Z,66.70
2018-03-30T21:42:37.515Z,66.70
2018-03-30T21:45:04.549Z,66.60
2018-03-30T21:47:32.419Z,66.70
2018-03-30T21:49:59.499Z,66.60
2018-03-30T21:52:26.553Z,66.50
2018-03-30T21:54:53.590Z,66.50
2018-03-30T21:57:20.705Z,66.50
2018-03-30T21:59:47.715Z,66.50
2018-03-30T22:02:15.546Z,66.50
2018-03-30T22:04:42.574Z,66.40
2018-03-30T22:07:09.629Z,66.60
2018-03-30T22:09:36.658Z,67.00
2018-03-30T22:12:03.713Z,67.00
2018-03-30T22:14:30.744Z,66.90
2018-03-30T22:16:57.801Z,66.70
2018-03-30T22:19:24.877Z,67.00
2018-03-30T22:21:51.985Z,67.00
2018-03-30T22:24:19.022Z,66.80
2018-03-30T22:26:46.099Z,66.90
2018-03-30T22:29:13.135Z,66.90
2018-03-30T22:31:40.193Z,66.90
2018-03-30T22:34:07.221Z,66.60
2018-03-30T22:36:35.050Z,66.60
2018-03-30T22:39:02.076Z,66.60
2018-03-30T22:41:29.106Z,66.70
2018-03-30T22:43:56.173Z,66.40
2018-03-30T22:46:23.205Z,66.40
2018-03-30T22:48:50.335Z,66.50
2018-03-30T22:51:17.420Z,66.70
2018-03-30T22:53:44.534Z,67.20
2018-03-30T22:56:11.658Z,66.70
2018-03-30T22:58:39.534Z,66.50
2018-03-30T23:01:07.384Z,66.50
2018-03-30T23:03:34.508Z,66.50
2018-03-30T23:06:01.603Z,66.70
2018-03-30T23:08:29.491Z,66.60
2018-03-30T23:10:56.527Z,66.60
2018-03-30T23:13:24.399Z,66.60
2018-03-30T23:15:51.437Z,66.60
2018-03-30T23:18:19.335Z,66.70
2018-03-30T23:20:46.425Z,66.60
2018-03-30T23:23:13.553Z,66.40
2018-03-30T23:25:40.631Z,66.60
2018-03-30T23:28:07.755Z,66.80
2018-03-30T23:30:34.838Z,66.70
2018-03-30T23:33:01.971Z,66.80
2018-03-30T23:35:29.053Z,66.70
2018-03-30T23:37:56.952Z,66.70
2018-03-30T23:40:24.040Z,66.60
2018-03-30T23:42:51.171Z,66.80
2018-03-30T23:45:18.256Z,66.70
2018-03-30T23:47:45.337Z,66.80
2018-03-30T23:50:12.445Z,66.80
2018-03-30T23:52:39.541Z,66.80
2018-03-30T23:55:06.667Z,66.90
2018-03-30T23:57:34.520Z,66.80
